Wednesday, April 25, 2018, 1:04 AM EDT
Back to Local

KIPT, Williamsport-lycoming County

Location: Montoursville, PA, United States Lat: 41.25
Local Time: 1:04 AM EDT ( 5:04 GMT) Lon: -76.917
Time Zone: US/Eastern Elev: 528 ft

Show me the last for .
Show Decoded

2018-04-25 00:13 METAR KIPT 250413Z AUTO 08005KT 8SM -RA BKN027 OVC034 11/09 A3006 RMK AO2 P0001
                 T01060094 =
2018-04-24 23:54 METAR KIPT 250354Z AUTO 07006KT 10SM -RA OVC034 11/09 A3007 RMK AO2 SLP182 P0002
                 T01110094 =
2018-04-24 22:54 METAR KIPT 250254Z AUTO 08006KT 10SM -RA OVC075 11/09 A3009 RMK AO2 SLP190 P0003
                 60006 T01110094 58002 =
2018-04-24 21:54 METAR KIPT 250154Z 12008KT 10SM -RA SCT049 OVC065 12/08 A3011 RMK AO2 SLP196
                 P0003 T01220083 =
2018-04-24 20:54 METAR KIPT 250054Z 10008KT 10SM -RA OVC060 13/07 A3010 RMK AO2 SLP193 P0000
                 T01330072 =
2018-04-24 19:54 METAR KIPT 242354Z 10009G19KT 10SM -RA BKN060 OVC080 16/04 A3010 RMK AO2 RAB40
                 SLP193 P0000 60000 T01560039 10189 20156 56009 =
2018-04-24 18:54 METAR KIPT 242254Z 11008G14KT 10SM FEW065 OVC100 17/03 A3011 RMK AO2 SLP195
                 T01670028 =
2018-04-24 17:54 METAR KIPT 242154Z 10007KT 050V120 10SM FEW060 BKN120 17/03 A3011 RMK AO2 SLP197
                 T01720033 =
2018-04-24 16:54 METAR KIPT 242054Z 13012G17KT 10SM FEW070 BKN110 17/03 A3012 RMK AO2 SLP202
                 T01720028 56024 =
2018-04-24 15:54 METAR KIPT 241954Z 16006G24KT 10SM SCT070 18/02 A3014 RMK AO2 SLP207 T01780022 =
2018-04-24 14:54 METAR KIPT 241854Z VRB06G19KT 10SM SCT060 18/03 A3017 RMK AO2 PK WND 17029/1838
                 SLP215 T01830028 =
2018-04-24 13:54 METAR KIPT 241754Z 13011G22KT 110V170 10SM BKN060 18/04 A3019 RMK AO2 SLP225
                 T01830039 10183 20089 58029 =
2018-04-24 12:54 METAR KIPT 241654Z VRB03KT 10SM OVC050 17/03 A3023 RMK AO2 SLP237 T01670028 =
2018-04-24 11:54 METAR KIPT 241554Z 11007G16KT 10SM OVC044 16/03 A3027 RMK AO2 SLP249 T01560028 =
2018-04-24 10:54 METAR KIPT 241454Z 00000KT 10SM SCT048 15/01 A3028 RMK AO2 SLP255 T01500006
                 58014 =
2018-04-24 09:54 METAR KIPT 241354Z VRB04KT 10SM CLR 13/M01 A3030 RMK AO2 SLP262 T01331006 =
2018-04-24 08:54 METAR KIPT 241254Z 00000KT 10SM CLR 11/M01 A3031 RMK AO2 SLP265 T01111006 =
2018-04-24 07:54 METAR KIPT 241154Z 13004KT 10SM CLR 08/02 A3032 RMK AO2 SLP268 T00830022 10122
                 20067 51003 =
2018-04-24 06:54 METAR KIPT 241054Z 13003KT 10SM CLR 07/01 A3032 RMK AO2 SLP268 T00720006 =
2018-04-24 05:54 METAR KIPT 240954Z AUTO 14003KT 10SM CLR 07/01 A3032 RMK AO2 SLP268 T00670011 =
2018-04-24 04:54 METAR KIPT 240854Z AUTO VRB05KT 10SM CLR 08/01 A3031 RMK AO2 SLP266 T00830011
                 56002 =
2018-04-24 03:54 METAR KIPT 240754Z AUTO 05003KT 10SM CLR 08/02 A3032 RMK AO2 SLP266 T00830017 =
2018-04-24 02:54 METAR KIPT 240654Z AUTO 00000KT 10SM CLR 11/02 A3032 RMK AO2 SLP265 T01110017 =
2018-04-24 01:54 METAR KIPT 240554Z AUTO 00000KT 10SM CLR 10/02 A3032 RMK AO2 SLP267 T01000017
                 10178 20083 55004 =

Support USWX by starting your Amazon purchase here.